createdAt,value
2022-09-12T00:00:19.901Z,1020.72
2022-09-12T00:01:20.804Z,1020.69
2022-09-12T00:02:21.654Z,1020.69
2022-09-12T00:03:22.542Z,1020.70
2022-09-12T00:04:23.417Z,1020.69
2022-09-12T00:05:24.300Z,1020.66
2022-09-12T00:06:25.186Z,1020.67
2022-09-12T00:07:26.062Z,1020.66
2022-09-12T00:08:26.975Z,1020.67
2022-09-12T00:09:27.837Z,1020.66
2022-09-12T00:10:28.713Z,1020.66
2022-09-12T00:11:29.586Z,1020.64
2022-09-12T00:12:30.460Z,1020.63
2022-09-12T00:13:31.349Z,1020.62
2022-09-12T00:14:32.221Z,1020.62
2022-09-12T00:15:33.106Z,1020.61
2022-09-12T00:16:34.085Z,1020.61
2022-09-12T00:17:34.954Z,1020.59
2022-09-12T00:18:35.834Z,1020.60
2022-09-12T00:19:36.723Z,1020.64
2022-09-12T00:20:37.606Z,1020.64
2022-09-12T00:21:38.492Z,1020.60
2022-09-12T00:22:39.366Z,1020.61
2022-09-12T00:23:40.272Z,1020.58
2022-09-12T00:24:41.176Z,1020.57
2022-09-12T00:25:42.039Z,1020.52
2022-09-12T00:26:42.914Z,1020.53
2022-09-12T00:27:43.801Z,1020.51
2022-09-12T00:28:44.841Z,1020.48
2022-09-12T00:29:45.289Z,1020.48
2022-09-12T00:30:46.195Z,1020.49
2022-09-12T00:31:47.089Z,1020.48
2022-09-12T00:32:47.927Z,1020.46
2022-09-12T00:33:48.818Z,1020.46
2022-09-12T00:34:49.701Z,1020.49
2022-09-12T00:35:50.572Z,1020.48
2022-09-12T00:36:51.446Z,1020.44
2022-09-12T00:37:52.318Z,1020.42
2022-09-12T00:38:53.218Z,1020.42
2022-09-12T00:39:54.140Z,1020.43
2022-09-12T00:40:54.974Z,1020.40
2022-09-12T00:41:55.884Z,1020.43
2022-09-12T00:42:56.765Z,1020.41
2022-09-12T00:43:57.648Z,1020.42
2022-09-12T00:44:58.526Z,1020.41
2022-09-12T00:45:59.429Z,1020.40
2022-09-12T00:47:00.296Z,1020.40
2022-09-12T00:48:01.176Z,1020.38
2022-09-12T00:49:02.055Z,1020.39
2022-09-12T00:50:02.935Z,1020.36
2022-09-12T00:51:03.863Z,1020.35
2022-09-12T00:52:04.724Z,1020.36
2022-09-12T00:53:05.600Z,1020.37
2022-09-12T00:54:06.500Z,1020.32
2022-09-12T00:55:07.356Z,1020.32
2022-09-12T00:56:08.248Z,1020.33
2022-09-12T00:57:09.170Z,1020.34
2022-09-12T00:58:10.025Z,1020.34
2022-09-12T00:59:10.903Z,1020.33
2022-09-12T01:00:11.782Z,1020.32
2022-09-12T01:01:12.754Z,1020.32
2022-09-12T01:02:13.654Z,1020.30
2022-09-12T01:03:14.557Z,1020.29
2022-09-12T01:04:15.423Z,1020.28
2022-09-12T01:05:16.290Z,1020.29
2022-09-12T01:06:17.174Z,1020.27
2022-09-12T01:07:18.094Z,1020.24
2022-09-12T01:08:18.962Z,1020.24
2022-09-12T01:09:19.855Z,1020.23
2022-09-12T01:10:20.725Z,1020.23
2022-09-12T01:11:21.601Z,1020.22
2022-09-12T01:12:22.488Z,1020.23
2022-09-12T01:13:23.374Z,1020.20
2022-09-12T01:14:24.256Z,1020.17
2022-09-12T01:15:25.133Z,1020.16
2022-09-12T01:16:26.047Z,1020.13
2022-09-12T01:17:26.912Z,1020.16
2022-09-12T01:18:27.794Z,1020.15
2022-09-12T01:19:28.667Z,1020.09
2022-09-12T01:20:29.548Z,1020.06
2022-09-12T01:21:30.424Z,1020.06
2022-09-12T01:22:31.348Z,1020.02
2022-09-12T01:23:32.215Z,1020.02
2022-09-12T01:24:33.113Z,1020.01
2022-09-12T01:25:33.970Z,1020.00
2022-09-12T01:26:34.849Z,1019.97
2022-09-12T01:27:35.744Z,1019.97
2022-09-12T01:28:36.630Z,1019.95
2022-09-12T01:29:37.504Z,1019.95
2022-09-12T01:30:38.393Z,1019.92
2022-09-12T01:31:39.263Z,1019.93
2022-09-12T01:32:40.168Z,1019.90
2022-09-12T01:33:41.044Z,1019.90
2022-09-12T01:34:41.926Z,1019.90
2022-09-12T01:35:42.804Z,1019.85
2022-09-12T01:36:43.681Z,1019.85
2022-09-12T01:37:44.583Z,1019.84
2022-09-12T01:38:45.602Z,1019.83
2022-09-12T01:39:46.017Z,1019.83
2022-09-12T01:40:46.875Z,1019.83
2022-09-12T01:41:47.736Z,1019.82
2022-09-12T01:42:48.627Z,1019.85
2022-09-12T01:43:49.510Z,1019.85
2022-09-12T01:44:50.389Z,1019.86
2022-09-12T01:45:51.311Z,1019.83
2022-09-12T01:46:52.137Z,1019.80
2022-09-12T01:47:53.038Z,1019.81
2022-09-12T01:48:53.911Z,1019.82
2022-09-12T01:49:54.783Z,1019.78
2022-09-12T01:50:55.664Z,1019.74
2022-09-12T01:51:56.540Z,1019.76
2022-09-12T01:52:57.428Z,1019.73
2022-09-12T01:53:58.331Z,1019.73
2022-09-12T01:54:59.246Z,1019.72
2022-09-12T01:56:00.111Z,1019.70
2022-09-12T01:57:00.990Z,1019.69
2022-09-12T01:58:01.870Z,1019.71
2022-09-12T01:59:02.751Z,1019.72
2022-09-12T02:00:03.626Z,1019.70
2022-09-12T02:01:04.573Z,1019.69
2022-09-12T02:02:05.466Z,1019.68
2022-09-12T02:03:06.319Z,1019.67
2022-09-12T02:04:07.203Z,1019.68
2022-09-12T02:05:08.085Z,1019.67
2022-09-12T02:06:08.959Z,1019.65
2022-09-12T02:07:09.844Z,1019.63
2022-09-12T02:08:10.774Z,1019.66
2022-09-12T02:09:11.622Z,1019.65
2022-09-12T02:10:12.512Z,1019.64
2022-09-12T02:11:13.378Z,1019.63
2022-09-12T02:12:14.253Z,1019.67
2022-09-12T02:13:15.152Z,1019.65
2022-09-12T02:14:16.036Z,1019.61
2022-09-12T02:15:16.981Z,1019.62
2022-09-12T02:16:17.842Z,1019.62
2022-09-12T02:17:18.694Z,1019.60
2022-09-12T02:18:19.594Z,1019.59
2022-09-12T02:19:20.465Z,1019.58
2022-09-12T02:20:44.453Z,1019.55
2022-09-12T02:21:23.115Z,1019.51
2022-09-12T02:22:22.989Z,1019.51
2022-09-12T02:23:23.881Z,1019.53
2022-09-12T02:24:24.776Z,1019.49
2022-09-12T02:25:25.683Z,1019.48
2022-09-12T02:26:26.548Z,1019.48
2022-09-12T02:27:27.431Z,1019.44
2022-09-12T02:28:28.324Z,1019.43
2022-09-12T02:29:29.204Z,1019.49
2022-09-12T02:30:30.154Z,1019.50
2022-09-12T02:31:31.002Z,1019.47
2022-09-12T02:32:31.880Z,1019.48
2022-09-12T02:33:32.799Z,1019.47
2022-09-12T02:34:33.695Z,1019.43
2022-09-12T02:35:34.608Z,1019.45
2022-09-12T02:36:35.476Z,1019.47
2022-09-12T02:37:36.348Z,1019.51
2022-09-12T02:38:37.260Z,1019.44
2022-09-12T02:39:40.222Z,1019.46
2022-09-12T02:40:39.915Z,1019.46
2022-09-12T02:41:39.773Z,1019.45
2022-09-12T02:42:40.648Z,1019.45
2022-09-12T02:43:41.543Z,1019.44
2022-09-12T02:44:42.418Z,1019.41
2022-09-12T02:45:43.331Z,1019.42
2022-09-12T02:46:44.185Z,1019.41
2022-09-12T02:47:45.068Z,1019.39
2022-09-12T02:48:46.095Z,1019.41
2022-09-12T02:49:46.449Z,1019.41
2022-09-12T02:50:47.325Z,1019.42
2022-09-12T02:51:48.209Z,1019.43
2022-09-12T02:52:49.095Z,1019.41
2022-09-12T02:53:49.976Z,1019.38
2022-09-12T02:54:50.850Z,1019.36
2022-09-12T02:55:51.750Z,1019.39
2022-09-12T02:56:52.604Z,1019.42
2022-09-12T02:57:53.486Z,1019.41
2022-09-12T02:58:54.383Z,1019.42
2022-09-12T02:59:55.262Z,1019.41
2022-09-12T03:00:56.148Z,1019.45
2022-09-12T03:01:57.034Z,1019.43
2022-09-12T03:02:57.883Z,1019.40
2022-09-12T03:03:58.776Z,1019.41
2022-09-12T03:04:59.672Z,1019.43
2022-09-12T03:06:00.541Z,1019.43
2022-09-12T03:07:01.423Z,1019.44
2022-09-12T03:08:02.296Z,1019.42
2022-09-12T03:09:03.185Z,1019.43
2022-09-12T03:10:04.058Z,1019.43
2022-09-12T03:11:04.961Z,1019.42
2022-09-12T03:12:05.850Z,1019.42
2022-09-12T03:13:06.718Z,1019.43
2022-09-12T03:14:07.603Z,1019.43
2022-09-12T03:15:08.487Z,1019.44
2022-09-12T03:16:09.395Z,1019.43
2022-09-12T03:17:10.259Z,1019.44
2022-09-12T03:18:11.129Z,1019.46
2022-09-12T03:19:12.032Z,1019.43
2022-09-12T03:20:12.931Z,1019.38
2022-09-12T03:21:13.841Z,1019.39
2022-09-12T03:22:14.708Z,1019.43
2022-09-12T03:23:15.593Z,1019.39
2022-09-12T03:24:16.517Z,1019.38
2022-09-12T03:25:17.424Z,1019.37
2022-09-12T03:26:18.335Z,1019.36
2022-09-12T03:27:19.198Z,1019.37
2022-09-12T03:28:20.099Z,1019.35
2022-09-12T03:29:20.978Z,1019.34
2022-09-12T03:30:21.926Z,1019.35
2022-09-12T03:31:22.763Z,1019.37
2022-09-12T03:32:23.634Z,1019.36
2022-09-12T03:33:24.521Z,1019.33
2022-09-12T03:34:25.416Z,1019.34
2022-09-12T03:35:26.290Z,1019.32
2022-09-12T03:36:27.164Z,1019.34
2022-09-12T03:37:28.044Z,1019.34
2022-09-12T03:38:28.918Z,1019.33
2022-09-12T03:39:29.807Z,1019.30
2022-09-12T03:40:30.685Z,1019.30
2022-09-12T03:41:31.581Z,1019.31
2022-09-12T03:42:32.490Z,1019.32
2022-09-12T03:43:33.338Z,1019.31
2022-09-12T03:44:34.221Z,1019.31
2022-09-12T03:45:35.158Z,1019.28
2022-09-12T03:46:36.010Z,1019.30
2022-09-12T03:47:36.881Z,1019.30
2022-09-12T03:48:37.767Z,1019.28
2022-09-12T03:49:38.667Z,1019.28
2022-09-12T03:50:39.542Z,1019.30
2022-09-12T03:51:40.440Z,1019.29
2022-09-12T03:52:41.356Z,1019.31
2022-09-12T03:53:42.209Z,1019.33
2022-09-12T03:54:43.099Z,1019.30
2022-09-12T03:55:43.986Z,1019.26
2022-09-12T03:56:44.878Z,1019.27
2022-09-12T03:57:45.740Z,1019.27
2022-09-12T03:58:46.833Z,1019.24
2022-09-12T03:59:47.240Z,1019.21
2022-09-12T04:00:48.177Z,1019.20
2022-09-12T04:01:49.029Z,1019.22
2022-09-12T04:02:49.924Z,1019.22
2022-09-12T04:03:50.788Z,1019.24
2022-09-12T04:04:51.666Z,1019.26
2022-09-12T04:05:52.561Z,1019.23
2022-09-12T04:06:53.433Z,1019.22
2022-09-12T04:07:54.312Z,1019.25
2022-09-12T04:08:55.218Z,1019.27
2022-09-12T04:09:56.076Z,1019.25
2022-09-12T04:10:56.962Z,1019.28
2022-09-12T04:11:57.855Z,1019.28
2022-09-12T04:12:58.707Z,1019.25
2022-09-12T04:13:59.589Z,1019.29
2022-09-12T04:15:00.480Z,1019.31
2022-09-12T04:16:01.355Z,1019.32
2022-09-12T04:17:02.248Z,1019.31
2022-09-12T04:18:05.990Z,1019.33
2022-09-12T04:19:04.070Z,1019.31
2022-09-12T04:20:04.962Z,1019.32
2022-09-12T04:21:05.836Z,1019.29
2022-09-12T04:22:06.718Z,1019.30
2022-09-12T04:23:07.632Z,1019.29
2022-09-12T04:24:08.484Z,1019.29
2022-09-12T04:25:09.380Z,1019.32
2022-09-12T04:26:10.260Z,1019.30
2022-09-12T04:27:11.155Z,1019.29
2022-09-12T04:28:11.972Z,1019.31
2022-09-12T04:29:12.823Z,1019.33
2022-09-12T04:30:13.640Z,1019.31
2022-09-12T04:31:14.515Z,1019.29
2022-09-12T04:32:15.398Z,1019.31
2022-09-12T04:33:16.269Z,1019.33
2022-09-12T04:34:17.150Z,1019.34
2022-09-12T04:35:18.017Z,1019.32
2022-09-12T04:36:18.828Z,1019.32
2022-09-12T04:37:19.658Z,1019.32
2022-09-12T04:38:20.542Z,1019.33
2022-09-12T04:39:21.373Z,1019.33
2022-09-12T04:40:22.199Z,1019.30
2022-09-12T04:41:23.045Z,1019.32
2022-09-12T04:42:23.876Z,1019.33
2022-09-12T04:43:24.675Z,1019.31
2022-09-12T04:44:25.504Z,1019.30
2022-09-12T04:45:26.333Z,1019.29
2022-09-12T04:46:27.150Z,1019.29
2022-09-12T04:47:27.995Z,1019.30
2022-09-12T04:48:28.802Z,1019.29
2022-09-12T04:49:29.620Z,1019.29
2022-09-12T04:50:30.459Z,1019.29
2022-09-12T04:51:31.291Z,1019.33
2022-09-12T04:52:32.117Z,1019.32
2022-09-12T04:53:32.967Z,1019.34
2022-09-12T04:54:33.766Z,1019.33
2022-09-12T04:55:34.598Z,1019.37
2022-09-12T04:56:35.423Z,1019.38
2022-09-12T04:57:36.262Z,1019.38
2022-09-12T04:58:37.070Z,1019.36
2022-09-12T04:59:37.918Z,1019.35
2022-09-12T05:00:38.737Z,1019.35
2022-09-12T05:01:39.634Z,1019.36
2022-09-12T05:02:40.404Z,1019.37
2022-09-12T05:03:41.224Z,1019.35
2022-09-12T05:04:42.052Z,1019.35
2022-09-12T05:05:42.923Z,1019.35
2022-09-12T05:06:43.717Z,1019.38
2022-09-12T05:07:44.538Z,1019.34
2022-09-12T05:08:45.450Z,1019.36
2022-09-12T05:09:46.264Z,1019.35
2022-09-12T05:10:47.092Z,1019.36
2022-09-12T05:12:05.007Z,1019.34
2022-09-12T05:12:49.647Z,1019.36
2022-09-12T05:13:49.516Z,1019.37
2022-09-12T05:14:50.284Z,1019.37
2022-09-12T05:15:51.113Z,1019.39
2022-09-12T05:16:52.030Z,1019.40
2022-09-12T05:17:52.860Z,1019.38
2022-09-12T05:18:53.688Z,1019.38
2022-09-12T05:19:54.535Z,1019.36
2022-09-12T05:20:55.415Z,1019.36
2022-09-12T05:21:56.251Z,1019.36
2022-09-12T05:22:57.037Z,1019.38
2022-09-12T05:23:57.865Z,1019.40
2022-09-12T05:24:58.767Z,1019.40
2022-09-12T05:25:59.558Z,1019.40
2022-09-12T05:27:00.387Z,1019.40
2022-09-12T05:28:01.244Z,1019.39
2022-09-12T05:29:02.046Z,1019.40
2022-09-12T05:30:02.874Z,1019.42
2022-09-12T05:31:03.745Z,1019.42
2022-09-12T05:32:04.529Z,1019.42
2022-09-12T05:33:05.405Z,1019.44
2022-09-12T05:34:06.189Z,1019.44
2022-09-12T05:35:07.027Z,1019.45
2022-09-12T05:36:07.846Z,1019.48
2022-09-12T05:37:08.675Z,1019.45
2022-09-12T05:38:09.494Z,1019.48
2022-09-12T05:39:10.371Z,1019.49
2022-09-12T05:40:11.239Z,1019.47
2022-09-12T05:41:16.945Z,1019.48
2022-09-12T05:42:13.737Z,1019.50
2022-09-12T05:43:13.575Z,1019.50
2022-09-12T05:44:14.386Z,1019.49
2022-09-12T05:45:15.213Z,1019.47
2022-09-12T05:46:16.112Z,1019.51
2022-09-12T05:47:16.903Z,1019.49
2022-09-12T05:48:17.724Z,1019.45
2022-09-12T05:49:18.565Z,1019.46
2022-09-12T05:50:19.401Z,1019.45
2022-09-12T05:51:20.235Z,1019.43
2022-09-12T05:52:21.067Z,1019.40
2022-09-12T05:53:21.886Z,1019.41
2022-09-12T05:54:22.708Z,1019.42
2022-09-12T05:55:23.543Z,1019.41
2022-09-12T05:56:24.362Z,1019.45
2022-09-12T05:57:25.191Z,1019.46
2022-09-12T05:58:26.038Z,1019.48
2022-09-12T05:59:26.853Z,1019.48
2022-09-12T06:00:32.865Z,1019.48
2022-09-12T06:01:29.475Z,1019.51
2022-09-12T06:02:29.332Z,1019.53
2022-09-12T06:03:30.133Z,1019.50
2022-09-12T06:04:30.969Z,1019.52
2022-09-12T06:05:31.807Z,1019.53
2022-09-12T06:06:32.641Z,1019.52
2022-09-12T06:07:33.461Z,1019.52
2022-09-12T06:08:34.283Z,1019.52
2022-09-12T06:09:35.116Z,1019.53
2022-09-12T06:10:35.958Z,1019.52
2022-09-12T06:11:36.779Z,1019.50
2022-09-12T06:12:37.600Z,1019.50
2022-09-12T06:13:38.446Z,1019.49
2022-09-12T06:14:39.249Z,1019.50
2022-09-12T06:15:40.101Z,1019.51
2022-09-12T06:16:40.989Z,1019.50
2022-09-12T06:17:41.766Z,1019.50
2022-09-12T06:18:42.652Z,1019.51
2022-09-12T06:19:43.414Z,1019.53
2022-09-12T06:20:44.245Z,1019.54
2022-09-12T06:21:45.080Z,1019.53
2022-09-12T06:22:45.922Z,1019.52
2022-09-12T06:23:46.758Z,1019.50
2022-09-12T06:24:47.572Z,1019.49
2022-09-12T06:25:48.412Z,1019.48
2022-09-12T06:26:49.229Z,1019.48
2022-09-12T06:27:50.062Z,1019.49
2022-09-12T06:28:50.898Z,1019.49
2022-09-12T06:29:51.708Z,1019.51
2022-09-12T06:30:52.564Z,1019.51
2022-09-12T06:31:53.371Z,1019.53
2022-09-12T06:32:54.200Z,1019.50
2022-09-12T06:33:55.031Z,1019.47
2022-09-12T06:34:55.859Z,1019.44
2022-09-12T06:35:56.712Z,1019.45
2022-09-12T06:36:57.515Z,1019.44
2022-09-12T06:37:58.339Z,1019.41
2022-09-12T06:38:59.167Z,1019.38
2022-09-12T06:40:00.005Z,1019.36
2022-09-12T06:41:00.829Z,1019.35
2022-09-12T06:42:01.653Z,1019.33
2022-09-12T06:43:02.478Z,1019.34
2022-09-12T06:44:03.325Z,1019.35
2022-09-12T06:45:04.136Z,1019.35
2022-09-12T06:46:05.009Z,1019.34
2022-09-12T06:47:05.799Z,1019.36
2022-09-12T06:48:06.644Z,1019.34
2022-09-12T06:49:07.475Z,1019.35
2022-09-12T06:50:08.292Z,1019.37
2022-09-12T06:51:09.126Z,1019.35
2022-09-12T06:52:09.953Z,1019.38
2022-09-12T06:53:10.773Z,1019.40
2022-09-12T06:54:11.601Z,1019.32
2022-09-12T06:55:16.210Z,1019.34
2022-09-12T06:56:14.146Z,1019.32
2022-09-12T06:57:13.975Z,1019.32
2022-09-12T06:58:14.805Z,1019.34
2022-09-12T06:59:15.641Z,1019.31
2022-09-12T07:00:16.440Z,1019.24
2022-09-12T07:01:17.343Z,1019.22
2022-09-12T07:02:18.165Z,1019.20
2022-09-12T07:03:18.953Z,1019.18
2022-09-12T07:04:19.787Z,1019.18
2022-09-12T07:05:20.606Z,1019.17
2022-09-12T07:06:21.434Z,1019.15
2022-09-12T07:07:22.260Z,1019.12
2022-09-12T07:08:23.085Z,1019.14
2022-09-12T07:09:23.913Z,1019.10
2022-09-12T07:10:24.815Z,1019.09
2022-09-12T07:11:25.611Z,1019.11
2022-09-12T07:12:26.452Z,1019.12
2022-09-12T07:13:27.280Z,1019.14
2022-09-12T07:14:28.127Z,1019.16
2022-09-12T07:15:28.945Z,1019.13
2022-09-12T07:16:30.324Z,1019.17
2022-09-12T07:17:30.349Z,1019.15
2022-09-12T07:18:31.176Z,1019.13
2022-09-12T07:19:31.995Z,1019.13
2022-09-12T07:20:32.824Z,1019.11
2022-09-12T07:21:33.656Z,1019.11
2022-09-12T07:22:34.495Z,1019.13
2022-09-12T07:23:35.369Z,1019.08
2022-09-12T07:24:36.215Z,1019.04
2022-09-12T07:25:37.045Z,1019.07
2022-09-12T07:26:37.876Z,1019.00
2022-09-12T07:27:38.705Z,1019.02
2022-09-12T07:28:39.523Z,1019.00
2022-09-12T07:29:40.369Z,1019.02
2022-09-12T07:30:41.287Z,1019.03
2022-09-12T07:31:42.083Z,1019.01
2022-09-12T07:32:42.903Z,1019.02
2022-09-12T07:33:43.733Z,1019.00
2022-09-12T07:34:44.550Z,1019.00
2022-09-12T07:35:45.368Z,1019.01
2022-09-12T07:36:46.198Z,1018.98
2022-09-12T07:37:47.020Z,1019.02
2022-09-12T07:38:47.985Z,1018.99
2022-09-12T07:39:48.778Z,1019.01
2022-09-12T07:40:49.582Z,1019.01
2022-09-12T07:41:50.419Z,1019.00
2022-09-12T07:42:51.256Z,1019.04
2022-09-12T07:43:52.084Z,1019.02
2022-09-12T07:44:52.925Z,1019.04
2022-09-12T07:45:53.767Z,1019.06
2022-09-12T07:46:54.576Z,1019.04
2022-09-12T07:47:55.410Z,1019.02
2022-09-12T07:48:56.232Z,1019.02
2022-09-12T07:49:57.071Z,1019.02
2022-09-12T07:50:57.888Z,1019.00
2022-09-12T07:51:58.727Z,1018.98
2022-09-12T07:52:59.595Z,1018.93
2022-09-12T07:54:00.424Z,1018.95
2022-09-12T07:55:01.251Z,1018.95
2022-09-12T07:56:02.079Z,1018.92
2022-09-12T07:57:02.942Z,1018.96
2022-09-12T07:58:03.761Z,1018.98
2022-09-12T07:59:04.582Z,1018.96
2022-09-12T08:00:05.429Z,1018.95
2022-09-12T08:01:06.269Z,1018.91
2022-09-12T08:02:07.089Z,1018.96
2022-09-12T08:03:07.909Z,1018.89
2022-09-12T08:04:08.734Z,1018.90
2022-09-12T08:05:09.555Z,1018.89
2022-09-12T08:06:10.387Z,1018.88
2022-09-12T08:07:11.223Z,1018.88
2022-09-12T08:08:12.048Z,1018.85
2022-09-12T08:09:12.882Z,1018.90
2022-09-12T08:10:13.697Z,1018.88
2022-09-12T08:11:14.515Z,1018.87
2022-09-12T08:12:15.370Z,1018.86
2022-09-12T08:13:16.192Z,1018.89
2022-09-12T08:14:17.016Z,1018.90
2022-09-12T08:15:17.852Z,1018.91
2022-09-12T08:16:18.652Z,1018.91
2022-09-12T08:17:19.481Z,1018.88
2022-09-12T08:18:20.319Z,1018.86
2022-09-12T08:19:21.117Z,1018.84
2022-09-12T08:20:26.455Z,1018.82
2022-09-12T08:21:23.660Z,1018.83
2022-09-12T08:22:23.499Z,1018.82
2022-09-12T08:23:24.328Z,1018.86
2022-09-12T08:24:25.162Z,1018.83
2022-09-12T08:25:25.999Z,1018.83
2022-09-12T08:26:26.816Z,1018.78
2022-09-12T08:27:27.646Z,1018.80
2022-09-12T08:28:28.475Z,1018.80
2022-09-12T08:29:29.296Z,1018.77
2022-09-12T08:30:30.194Z,1018.79
2022-09-12T08:31:31.002Z,1018.79
2022-09-12T08:32:31.832Z,1018.80
2022-09-12T08:33:32.651Z,1018.79
2022-09-12T08:34:33.479Z,1018.80
2022-09-12T08:35:34.303Z,1018.80
2022-09-12T08:36:35.126Z,1018.79
2022-09-12T08:37:35.966Z,1018.79
2022-09-12T08:38:36.790Z,1018.81
2022-09-12T08:39:37.687Z,1018.79
2022-09-12T08:40:38.475Z,1018.73
2022-09-12T08:41:39.302Z,1018.77
2022-09-12T08:42:40.127Z,1018.77
2022-09-12T08:43:40.964Z,1018.78
2022-09-12T08:44:41.787Z,1018.76
2022-09-12T08:45:42.633Z,1018.75
2022-09-12T08:46:43.430Z,1018.78
2022-09-12T08:47:44.270Z,1018.82
2022-09-12T08:48:45.100Z,1018.83
2022-09-12T08:49:45.936Z,1018.82
2022-09-12T08:50:49.835Z,1018.82
2022-09-12T08:51:47.410Z,1018.80
2022-09-12T08:52:48.244Z,1018.80
2022-09-12T08:53:49.076Z,1018.80
2022-09-12T08:54:49.904Z,1018.81
2022-09-12T08:55:50.740Z,1018.82
2022-09-12T08:56:51.582Z,1018.80
2022-09-12T08:57:52.413Z,1018.79
2022-09-12T08:58:53.239Z,1018.75
2022-09-12T08:59:54.072Z,1018.75
2022-09-12T09:00:54.906Z,1018.73
2022-09-12T09:01:55.775Z,1018.73
2022-09-12T09:02:56.633Z,1018.70
2022-09-12T09:03:57.424Z,1018.69
2022-09-12T09:04:58.261Z,1018.66
2022-09-12T09:05:59.087Z,1018.64
2022-09-12T09:06:59.914Z,1018.63
2022-09-12T09:08:00.749Z,1018.61
2022-09-12T09:09:01.577Z,1018.60
2022-09-12T09:10:02.394Z,1018.58
2022-09-12T09:11:03.226Z,1018.56
2022-09-12T09:12:04.047Z,1018.57
2022-09-12T09:13:04.883Z,1018.56
2022-09-12T09:14:05.720Z,1018.53
2022-09-12T09:15:06.533Z,1018.53
2022-09-12T09:16:07.421Z,1018.51
2022-09-12T09:17:08.238Z,1018.51
2022-09-12T09:18:09.065Z,1018.49
2022-09-12T09:19:09.888Z,1018.48
2022-09-12T09:20:10.710Z,1018.47
2022-09-12T09:21:11.537Z,1018.46
2022-09-12T09:22:12.369Z,1018.44
2022-09-12T09:23:13.199Z,1018.42
2022-09-12T09:24:14.027Z,1018.44
2022-09-12T09:25:14.853Z,1018.43
2022-09-12T09:26:15.679Z,1018.43
2022-09-12T09:27:39.245Z,1018.43
2022-09-12T09:28:18.247Z,1018.41
2022-09-12T09:29:18.080Z,1018.43
2022-09-12T09:30:19.045Z,1018.40
2022-09-12T09:31:19.879Z,1018.38
2022-09-12T09:32:20.661Z,1018.36
2022-09-12T09:33:21.512Z,1018.37
2022-09-12T09:34:22.327Z,1018.37
2022-09-12T09:35:23.165Z,1018.35
2022-09-12T09:36:24.005Z,1018.35
2022-09-12T09:37:24.820Z,1018.34
2022-09-12T09:38:25.649Z,1018.37
2022-09-12T09:39:26.487Z,1018.37
2022-09-12T09:40:27.313Z,1018.36
2022-09-12T09:41:28.139Z,1018.37
2022-09-12T09:42:28.957Z,1018.38
2022-09-12T09:43:29.806Z,1018.36
2022-09-12T09:44:30.620Z,1018.37
2022-09-12T09:45:31.457Z,1018.36
2022-09-12T09:46:32.373Z,1018.35
2022-09-12T09:47:33.201Z,1018.35
2022-09-12T09:48:34.032Z,1018.34
2022-09-12T09:49:34.855Z,1018.36
2022-09-12T09:50:35.687Z,1018.32
2022-09-12T09:51:36.522Z,1018.31
2022-09-12T09:52:37.331Z,1018.32
2022-09-12T09:53:38.174Z,1018.32
2022-09-12T09:54:39.003Z,1018.32
2022-09-12T09:55:39.828Z,1018.32
2022-09-12T09:56:40.656Z,1018.33
2022-09-12T09:57:41.497Z,1018.32
2022-09-12T09:58:42.355Z,1018.31
2022-09-12T09:59:43.146Z,1018.30
2022-09-12T10:00:43.971Z,1018.30
2022-09-12T10:01:44.906Z,1018.30
2022-09-12T10:02:45.721Z,1018.31
2022-09-12T10:03:46.623Z,1018.29
2022-09-12T10:04:47.484Z,1018.28
2022-09-12T10:05:48.312Z,1018.25
2022-09-12T10:06:49.148Z,1018.21
2022-09-12T10:07:49.972Z,1018.20
2022-09-12T10:08:50.815Z,1018.18
2022-09-12T10:09:51.734Z,1018.13
2022-09-12T10:10:52.533Z,1018.11
2022-09-12T10:11:53.353Z,1018.12
2022-09-12T10:12:54.177Z,1018.10
2022-09-12T10:13:55.013Z,1018.09
2022-09-12T10:14:55.834Z,1018.07
2022-09-12T10:15:56.745Z,1018.06
2022-09-12T10:16:57.540Z,1018.05
2022-09-12T10:17:58.363Z,1018.06
2022-09-12T10:18:59.190Z,1018.05
2022-09-12T10:20:17.840Z,1018.06
2022-09-12T10:21:01.733Z,1018.09
2022-09-12T10:22:01.553Z,1018.10
2022-09-12T10:23:02.379Z,1018.08
2022-09-12T10:24:03.209Z,1018.08
2022-09-12T10:25:04.038Z,1018.07
2022-09-12T10:26:04.874Z,1018.08
2022-09-12T10:27:05.700Z,1018.07
2022-09-12T10:28:06.532Z,1018.07
2022-09-12T10:29:07.375Z,1018.04
2022-09-12T10:30:08.206Z,1018.04
2022-09-12T10:31:09.069Z,1018.04
2022-09-12T10:32:09.867Z,1018.04
2022-09-12T10:33:10.668Z,1018.02
2022-09-12T10:34:11.512Z,1018.02
2022-09-12T10:35:12.341Z,1018.01
2022-09-12T10:36:13.166Z,1018.01
2022-09-12T10:37:13.987Z,1018.01
2022-09-12T10:38:14.825Z,1018.00
2022-09-12T10:39:15.665Z,1017.99
2022-09-12T10:40:16.535Z,1018.00
2022-09-12T10:41:17.309Z,1017.99
2022-09-12T10:42:22.835Z,1017.97
2022-09-12T10:43:19.851Z,1017.95
2022-09-12T10:44:19.701Z,1017.95
2022-09-12T10:45:20.545Z,1017.95
2022-09-12T10:46:21.448Z,1017.92
2022-09-12T10:47:22.241Z,1017.93
2022-09-12T10:48:23.052Z,1017.92
2022-09-12T10:49:23.890Z,1017.91
2022-09-12T10:50:24.718Z,1017.90
2022-09-12T10:51:25.548Z,1017.92
2022-09-12T10:52:26.383Z,1017.90
2022-09-12T10:53:31.029Z,1017.90
2022-09-12T10:54:28.927Z,1017.92
2022-09-12T10:55:28.768Z,1017.91
2022-09-12T10:56:29.597Z,1017.93
2022-09-12T10:57:30.449Z,1017.89
2022-09-12T10:58:31.284Z,1017.89
2022-09-12T10:59:32.102Z,1017.87
2022-09-12T11:00:32.936Z,1017.88
2022-09-12T11:01:33.826Z,1017.88
2022-09-12T11:02:34.765Z,1017.89
2022-09-12T11:03:35.634Z,1017.88
2022-09-12T11:04:36.401Z,1017.88
2022-09-12T11:05:37.223Z,1017.90
2022-09-12T11:06:38.055Z,1017.91
2022-09-12T11:07:38.878Z,1017.89
2022-09-12T11:08:39.707Z,1017.89
2022-09-12T11:09:40.568Z,1017.88
2022-09-12T11:10:44.295Z,1017.89
2022-09-12T11:11:42.321Z,1017.88
2022-09-12T11:12:43.146Z,1017.87
2022-09-12T11:13:43.970Z,1017.86
2022-09-12T11:14:44.809Z,1017.87
2022-09-12T11:15:45.679Z,1017.87
2022-09-12T11:16:46.473Z,1017.87
2022-09-12T11:17:47.321Z,1017.83
2022-09-12T11:18:48.127Z,1017.82
2022-09-12T11:19:48.965Z,1017.82
2022-09-12T11:20:49.801Z,1017.81
2022-09-12T11:21:50.623Z,1017.81
2022-09-12T11:22:51.453Z,1017.82
2022-09-12T11:23:52.280Z,1017.79
2022-09-12T11:24:53.122Z,1017.79
2022-09-12T11:25:53.947Z,1017.78
2022-09-12T11:26:54.777Z,1017.78
2022-09-12T11:27:55.603Z,1017.78
2022-09-12T11:28:56.429Z,1017.78
2022-09-12T11:29:57.264Z,1017.77
2022-09-12T11:30:58.109Z,1017.77
2022-09-12T11:31:58.908Z,1017.78
2022-09-12T11:32:59.750Z,1017.77
2022-09-12T11:34:00.566Z,1017.76
2022-09-12T11:35:01.409Z,1017.77
2022-09-12T11:36:02.226Z,1017.75
2022-09-12T11:37:05.502Z,1017.75
2022-09-12T11:38:04.757Z,1017.73
2022-09-12T11:39:04.590Z,1017.74
2022-09-12T11:40:05.493Z,1017.72
2022-09-12T11:41:06.266Z,1017.75
2022-09-12T11:42:07.095Z,1017.72
2022-09-12T11:43:07.919Z,1017.71
2022-09-12T11:44:08.732Z,1017.70
2022-09-12T11:45:09.563Z,1017.69
2022-09-12T11:46:10.472Z,1017.68
2022-09-12T11:47:11.266Z,1017.67
2022-09-12T11:48:12.118Z,1017.66
2022-09-12T11:49:12.913Z,1017.67
2022-09-12T11:50:13.754Z,1017.65
2022-09-12T11:51:14.577Z,1017.65
2022-09-12T11:52:15.408Z,1017.64
2022-09-12T11:53:16.234Z,1017.63
2022-09-12T11:54:17.056Z,1017.61
2022-09-12T11:55:17.885Z,1017.61
2022-09-12T11:56:18.721Z,1017.60
2022-09-12T11:57:19.540Z,1017.63
2022-09-12T11:58:20.368Z,1017.62
2022-09-12T11:59:21.201Z,1017.61
2022-09-12T12:00:22.037Z,1017.62
2022-09-12T12:01:22.843Z,1017.61
2022-09-12T12:02:23.732Z,1017.61
2022-09-12T12:03:24.643Z,1017.62
2022-09-12T12:04:25.404Z,1017.62
2022-09-12T12:05:26.243Z,1017.62
2022-09-12T12:06:27.065Z,1017.63
2022-09-12T12:07:27.891Z,1017.60
2022-09-12T12:08:28.714Z,1017.59
2022-09-12T12:09:29.550Z,1017.59
2022-09-12T12:10:30.389Z,1017.59
2022-09-12T12:11:31.222Z,1017.60
2022-09-12T12:12:32.036Z,1017.57
2022-09-12T12:13:32.864Z,1017.59
2022-09-12T12:14:33.701Z,1017.54
2022-09-12T12:15:34.612Z,1017.55